Time;durP1;ratioP1;P1;durP2;ratioP2;P2;SDS_P1;SDS_P2;PMS_P1;PMS_P2;Temp;Humidity;BMP_temperature;BMP_pressure;BME280_temperature;BME280_humidity;BME280_pressure;Samples;Min_cycle;Max_cycle;Signal;HPM_P1;HPM_P2
2021/10/05 00:03:56;;;;;;;1.10;0.35;;;13.20;99.90;;;;;;20719868;28;20041;-45
2021/10/05 00:13:58;;;;;;;1.15;0.35;;;13.20;99.90;;;;;;20707300;28;20126;-45
2021/10/05 00:23:59;;;;;;;2.63;0.50;;;13.00;99.90;;;;;;20729333;28;22080;-45
2021/10/05 00:34:00;;;;;;;0.60;0.30;;;13.00;99.90;;;;;;20753401;28;20041;-45
2021/10/05 00:44:02;;;;;;;4.57;0.40;;;12.90;99.90;;;;;;20796496;28;20049;-45
2021/10/05 00:54:03;;;;;;;1.23;0.32;;;12.90;99.90;;;;;;20794288;28;20034;-45
2021/10/05 01:04:04;;;;;;;1.40;0.40;;;12.90;99.90;;;;;;20787449;28;20081;-45
2021/10/05 01:14:06;;;;;;;1.10;0.30;;;12.90;99.90;;;;;;20742273;28;20048;-45
2021/10/05 01:24:14;;;;;;;1.90;0.30;;;12.90;99.90;;;;;;20741069;28;20042;-45
2021/10/05 01:34:16;;;;;;;1.38;0.40;;;12.80;99.90;;;;;;20712566;28;20048;-45
2021/10/05 01:44:17;;;;;;;1.20;0.40;;;12.90;99.90;;;;;;20739270;28;20042;-45
2021/10/05 01:54:19;;;;;;;0.40;0.20;;;13.00;99.90;;;;;;20798399;28;20038;-45
2021/10/05 02:04:20;;;;;;;1.27;0.43;;;13.00;99.90;;;;;;20788882;28;20073;-45
2021/10/05 02:14:22;;;;;;;1.90;0.50;;;13.10;99.90;;;;;;20798209;28;20037;-45
2021/10/05 02:34:24;;;;;;;1.48;0.57;;;13.00;99.90;;;;;;20717182;28;20029;-44
2021/10/05 02:44:25;;;;;;;1.20;0.22;;;12.90;99.90;;;;;;20737424;28;20045;-45
2021/10/05 02:54:26;;;;;;;1.55;0.35;;;12.70;99.90;;;;;;20774937;28;20033;-45
2021/10/05 03:04:27;;;;;;;0.55;0.20;;;12.80;99.90;;;;;;20789931;28;20056;-45
2021/10/05 03:14:29;;;;;;;2.70;0.65;;;12.80;99.90;;;;;;20792607;28;20037;-45
2021/10/05 03:24:30;;;;;;;1.15;0.43;;;12.70;99.90;;;;;;20787762;28;20056;-45
2021/10/05 03:34:31;;;;;;;0.52;0.25;;;12.60;99.90;;;;;;20781149;28;20041;-45
2021/10/05 03:44:32;;;;;;;8.88;1.52;;;12.50;99.90;;;;;;20763452;28;20046;-44
2021/10/05 03:54:34;;;;;;;0.77;0.35;;;12.40;99.90;;;;;;20760820;28;20112;-44
2021/10/05 04:04:35;;;;;;;2.42;1.95;;;12.40;99.90;;;;;;20768376;28;20057;-45
2021/10/05 04:14:38;;;;;;;1.90;0.40;;;12.50;99.90;;;;;;20804883;28;20029;-45
2021/10/05 04:24:39;;;;;;;0.70;0.40;;;12.50;99.90;;;;;;20810300;28;20045;-45
2021/10/05 04:34:41;;;;;;;1.02;0.30;;;12.50;99.90;;;;;;20811500;28;20057;-45
2021/10/05 04:44:42;;;;;;;2.80;0.40;;;12.50;99.90;;;;;;20812121;28;20033;-45
2021/10/05 04:54:43;;;;;;;1.63;0.50;;;12.50;99.90;;;;;;20779462;28;20041;-45
2021/10/05 05:04:44;;;;;;;1.40;0.40;;;12.50;99.90;;;;;;20777232;28;20046;-44
2021/10/05 05:14:45;;;;;;;1.08;0.47;;;12.50;99.90;;;;;;20783183;28;20036;-45
2021/10/05 05:24:47;;;;;;;0.52;0.20;;;12.50;99.90;;;;;;20796391;28;20042;-45
2021/10/05 05:34:48;;;;;;;5.53;0.47;;;12.50;99.90;;;;;;20800879;28;20442;-45
2021/10/05 05:44:52;;;;;;;3.15;0.30;;;12.60;99.90;;;;;;20803648;28;20052;-45
2021/10/05 05:54:53;;;;;;;6.47;0.50;;;12.40;99.90;;;;;;20806825;28;20038;-45
2021/10/05 06:04:54;;;;;;;2.28;0.60;;;12.40;99.90;;;;;;20786489;28;20414;-45
2021/10/05 06:14:55;;;;;;;0.30;0.13;;;12.50;99.90;;;;;;20777288;28;20049;-45
2021/10/05 06:24:56;;;;;;;0.43;0.15;;;12.40;99.90;;;;;;20759353;28;20053;-45
2021/10/05 06:34:57;;;;;;;1.08;0.40;;;12.30;99.90;;;;;;20805442;28;20377;-45
2021/10/05 06:44:59;;;;;;;3.80;0.45;;;12.30;99.90;;;;;;20792314;28;20109;-45
2021/10/05 06:55:01;;;;;;;1.98;0.55;;;12.20;99.90;;;;;;20796500;28;20762;-44
2021/10/05 07:05:02;;;;;;;6.18;0.60;;;12.30;99.90;;;;;;20802468;28;20128;-45
2021/10/05 07:15:05;;;;;;;1.08;0.40;;;12.30;99.90;;;;;;20789781;28;20046;-45
2021/10/05 07:25:07;;;;;;;0.90;0.30;;;12.40;99.90;;;;;;20768882;28;20030;-44
2021/10/05 07:35:08;;;;;;;1.83;0.68;;;12.50;99.90;;;;;;20770129;28;20048;-44
2021/10/05 07:45:10;;;;;;;2.00;0.85;;;12.60;99.90;;;;;;20797765;28;20037;-45
2021/10/05 07:55:11;;;;;;;1.98;0.70;;;12.80;99.90;;;;;;20801713;28;20050;-45
2021/10/05 08:05:16;;;;;;;3.85;0.80;;;13.00;99.90;;;;;;20800873;28;20041;-45
2021/10/05 08:15:17;;;;;;;1.55;0.70;;;13.20;99.90;;;;;;20817184;28;20033;-45
2021/10/05 08:25:18;;;;;;;4.65;0.52;;;13.60;99.90;;;;;;20798420;28;20055;-45
2021/10/05 08:35:20;;;;;;;1.13;0.40;;;13.90;99.90;;;;;;20784832;28;20407;-45
2021/10/05 08:45:22;;;;;;;1.65;0.70;;;14.20;99.90;;;;;;20793105;28;20084;-45
2021/10/05 08:55:23;;;;;;;3.38;1.15;;;14.50;99.90;;;;;;20796260;28;20037;-45
2021/10/05 09:05:25;;;;;;;1.95;0.88;;;14.80;99.90;;;;;;20796671;28;20486;-45
2021/10/05 09:15:30;;;;;;;1.13;0.57;;;15.00;99.90;;;;;;20797458;28;20049;-45
2021/10/05 09:25:33;;;;;;;1.83;0.50;;;15.10;99.90;;;;;;20809153;28;20069;-45
2021/10/05 09:35:45;;;;;;;1.33;0.55;;;15.20;99.90;;;;;;20784942;28;20033;-45
2021/10/05 09:45:46;;;;;;;1.75;0.75;;;15.40;99.90;;;;;;20788601;28;20427;-45
2021/10/05 09:55:47;;;;;;;2.97;0.77;;;15.60;99.90;;;;;;20784824;28;20071;-45
2021/10/05 10:05:49;;;;;;;2.90;0.40;;;15.70;99.90;;;;;;20810333;28;20554;-45
2021/10/05 10:15:52;;;;;;;0.75;0.30;;;16.10;99.90;;;;;;20803165;28;20037;-46
2021/10/05 10:25:57;;;;;;;1.15;0.73;;;16.40;99.90;;;;;;20783478;28;20434;-45
2021/10/05 10:35:59;;;;;;;1.10;0.20;;;16.80;99.90;;;;;;20817932;28;20125;-45
2021/10/05 10:46:02;;;;;;;1.02;0.20;;;16.90;99.90;;;;;;20791541;28;20054;-45
2021/10/05 10:56:05;;;;;;;0.63;0.20;;;16.90;99.90;;;;;;20769150;28;20053;-45
2021/10/05 11:06:14;;;;;;;2.30;0.47;;;16.50;99.90;;;;;;20783416;28;20402;-45
2021/10/05 11:16:15;;;;;;;1.02;0.20;;;16.40;99.90;;;;;;20801785;28;20398;-46
2021/10/05 11:26:16;;;;;;;1.85;0.20;;;16.40;99.90;;;;;;20805052;28;20132;-45
2021/10/05 11:36:25;;;;;;;1.48;0.40;;;16.40;99.90;;;;;;20805406;28;20025;-45
2021/10/05 11:46:26;;;;;;;3.63;0.38;;;16.30;99.90;;;;;;20794711;28;20063;-45
2021/10/05 11:56:27;;;;;;;2.90;0.68;;;16.20;99.90;;;;;;20784914;28;21047;-45
2021/10/05 12:06:40;;;;;;;2.75;0.50;;;16.20;99.90;;;;;;20780855;28;20045;-45
2021/10/05 12:16:55;;;;;;;3.15;0.93;;;15.80;99.90;;;;;;20782265;28;20045;-45
2021/10/05 12:26:56;;;;;;;0.40;0.22;;;15.60;99.90;;;;;;20804217;28;20312;-45
2021/10/05 12:36:58;;;;;;;1.08;0.35;;;15.30;99.90;;;;;;20833847;28;20042;-44
2021/10/05 12:47:04;;;;;;;1.13;0.40;;;14.70;99.90;;;;;;20801914;28;20566;-45
2021/10/05 12:57:08;;;;;;;1.38;0.68;;;14.30;99.90;;;;;;20834407;28;20125;-45
2021/10/05 13:07:09;;;;;;;2.80;0.20;;;14.10;99.90;;;;;;20800221;28;20057;-46
2021/10/05 13:17:10;;;;;;;3.13;0.25;;;13.90;99.90;;;;;;20804311;28;20037;-45
2021/10/05 13:27:12;;;;;;;2.75;0.70;;;13.80;99.90;;;;;;20803720;28;20510;-45
2021/10/05 13:37:17;;;;;;;1.10;0.47;;;13.80;99.90;;;;;;20794299;28;20061;-45
2021/10/05 13:47:19;;;;;;;2.83;0.68;;;13.80;99.90;;;;;;20821231;28;20045;-46
2021/10/05 13:57:21;;;;;;;1.05;0.30;;;13.80;99.90;;;;;;20821041;28;20064;-46
2021/10/05 14:07:22;;;;;;;1.30;0.40;;;13.70;99.90;;;;;;20846444;28;20115;-46
2021/10/05 14:17:23;;;;;;;1.98;0.55;;;13.60;99.90;;;;;;20830216;28;20096;-46
2021/10/05 14:27:27;;;;;;;3.00;0.28;;;13.70;99.90;;;;;;20810881;28;20500;-46
2021/10/05 14:37:28;;;;;;;1.77;0.50;;;13.70;99.90;;;;;;20790563;28;20049;-45
2021/10/05 14:47:29;;;;;;;1.23;0.45;;;13.60;99.90;;;;;;20791924;28;20056;-46
2021/10/05 14:57:30;;;;;;;1.90;0.57;;;13.70;99.90;;;;;;20791582;28;20482;-44
2021/10/05 15:07:34;;;;;;;2.00;0.80;;;14.20;99.90;;;;;;20793784;28;20069;-44
2021/10/05 15:17:36;;;;;;;3.92;0.70;;;14.50;99.90;;;;;;20804630;28;20037;-44
2021/10/05 15:27:37;;;;;;;2.13;0.73;;;14.60;99.90;;;;;;20789255;28;20053;-44
2021/10/05 15:37:44;;;;;;;2.35;0.60;;;14.60;99.90;;;;;;20775667;28;20049;-44
2021/10/05 15:47:46;;;;;;;0.80;0.37;;;14.50;99.90;;;;;;20781644;28;20049;-44
2021/10/05 15:57:49;;;;;;;1.25;0.30;;;14.30;99.90;;;;;;20777063;28;20040;-44
2021/10/05 16:07:50;;;;;;;2.95;0.43;;;14.10;99.90;;;;;;20818430;28;20502;-44
2021/10/05 16:17:52;;;;;;;0.77;0.30;;;14.10;99.90;;;;;;20810686;28;20124;-44
2021/10/05 16:27:53;;;;;;;0.75;0.75;;;13.80;99.90;;;;;;20809140;28;20409;-44
2021/10/05 16:37:54;;;;;;;1.20;0.30;;;13.70;99.90;;;;;;20809540;28;20076;-44
2021/10/05 16:47:55;;;;;;;1.60;0.22;;;13.50;99.90;;;;;;20748791;28;20066;-44
2021/10/05 16:57:58;;;;;;;2.63;0.25;;;13.20;99.90;;;;;;20698060;28;20521;-44
2021/10/05 17:07:59;;;;;;;0.93;0.20;;;13.10;99.90;;;;;;20711600;28;20970;-44
2021/10/05 17:18:01;;;;;;;0.60;0.30;;;13.00;99.90;;;;;;20784839;28;20606;-44
2021/10/05 17:28:04;;;;;;;0.98;0.20;;;12.80;99.90;;;;;;20778756;28;20137;-44
2021/10/05 17:38:05;;;;;;;1.92;0.35;;;12.70;99.90;;;;;;20782464;28;20038;-44
2021/10/05 17:48:06;;;;;;;4.65;0.38;;;12.50;99.90;;;;;;20777605;28;20049;-44
2021/10/05 17:58:07;;;;;;;1.20;0.38;;;12.40;99.90;;;;;;20729012;28;21470;-44
2021/10/05 18:08:08;;;;;;;3.80;0.40;;;12.50;99.90;;;;;;20697133;28;20092;-43
2021/10/05 18:18:09;;;;;;;1.40;0.30;;;12.60;99.90;;;;;;20685975;28;20051;-43
2021/10/05 18:28:13;;;;;;;0.70;0.20;;;12.70;99.90;;;;;;20753280;28;20715;-44
2021/10/05 18:38:14;;;;;;;1.20;0.25;;;12.70;99.90;;;;;;20766436;28;20534;-44
2021/10/05 18:48:15;;;;;;;4.97;0.20;;;12.60;99.90;;;;;;20767163;28;20049;-44
2021/10/05 18:58:17;;;;;;;1.33;0.57;;;12.60;99.90;;;;;;20783458;28;20069;-44
2021/10/05 19:08:18;;;;;;;1.83;0.40;;;12.50;99.90;;;;;;20724362;28;20049;-44
2021/10/05 19:18:19;;;;;;;2.53;0.40;;;12.50;99.90;;;;;;20685060;28;20038;-44
2021/10/05 19:28:21;;;;;;;3.80;0.22;;;12.40;99.90;;;;;;20681968;28;20620;-44
2021/10/05 19:38:22;;;;;;;3.97;0.93;;;12.40;99.90;;;;;;20721936;28;20037;-44
2021/10/05 19:48:24;;;;;;;0.40;0.30;;;12.30;99.90;;;;;;20799528;28;20525;-44
2021/10/05 19:58:25;;;;;;;3.15;0.60;;;12.20;99.90;;;;;;20815116;28;20072;-44
2021/10/05 20:08:26;;;;;;;1.00;0.20;;;12.10;99.90;;;;;;20812807;28;20503;-44
2021/10/05 20:18:28;;;;;;;3.80;0.35;;;12.10;99.90;;;;;;20758693;28;20096;-44
2021/10/05 20:28:29;;;;;;;0.77;0.30;;;12.10;99.90;;;;;;20714093;28;20041;-44
2021/10/05 20:38:30;;;;;;;1.00;0.30;;;12.00;99.90;;;;;;20710416;28;20469;-44
2021/10/05 20:48:35;;;;;;;0.60;0.20;;;12.00;99.90;;;;;;20738007;28;20046;-44
2021/10/05 20:58:36;;;;;;;2.08;0.30;;;12.00;99.90;;;;;;20777825;28;20034;-44
2021/10/05 21:08:38;;;;;;;0.90;0.35;;;11.90;99.90;;;;;;20780641;28;20073;-44
2021/10/05 21:18:39;;;;;;;3.65;0.77;;;12.00;99.90;;;;;;20791799;28;20029;-44
2021/10/05 21:28:40;;;;;;;1.77;0.40;;;11.80;99.90;;;;;;20745924;28;20049;-44
2021/10/05 21:38:41;;;;;;;2.92;0.40;;;11.70;99.90;;;;;;20685927;28;20487;-44
2021/10/05 21:48:42;;;;;;;2.50;0.28;;;11.80;99.90;;;;;;20699836;28;20236;-43
2021/10/05 21:58:43;;;;;;;4.68;0.45;;;11.80;99.90;;;;;;20723825;28;20040;-44
2021/10/05 22:08:45;;;;;;;1.27;0.45;;;11.70;99.90;;;;;;20770552;28;20148;-44
2021/10/05 22:18:47;;;;;;;1.08;0.32;;;11.80;99.90;;;;;;20791046;28;20040;-44
2021/10/05 22:28:49;;;;;;;0.75;0.20;;;11.70;99.90;;;;;;20780993;28;20121;-45
2021/10/05 22:38:54;;;;;;;0.55;0.20;;;11.30;99.90;;;;;;20749776;28;20041;-45
2021/10/05 22:48:56;;;;;;;0.93;0.15;;;11.10;99.90;;;;;;20688259;28;20073;-46
2021/10/05 22:58:57;;;;;;;1.27;0.30;;;11.00;99.90;;;;;;20680913;28;20875;-45
2021/10/05 23:08:58;;;;;;;1.42;0.40;;;10.90;99.90;;;;;;20707463;28;20418;-45
2021/10/05 23:18:59;;;;;;;1.13;0.30;;;10.90;99.90;;;;;;20780933;28;20457;-46
2021/10/05 23:29:00;;;;;;;1.15;0.50;;;10.90;99.90;;;;;;20780528;28;20439;-45
2021/10/05 23:39:03;;;;;;;0.77;0.35;;;10.90;99.90;;;;;;20773573;28;20866;-45
2021/10/05 23:49:04;;;;;;;3.03;0.95;;;10.80;99.90;;;;;;20772710;28;20056;-45
2021/10/05 23:59:05;;;;;;;2.05;0.50;;;10.80;99.90;;;;;;20678621;28;20037;-45
